P&o Hercules — 5BRB4 — position and weather

sailwx.info

Track history (hours):
 
Tides and Currents Weather Stations Pressure Air Temp Water Temp Dewpoint Dewpoint Depression Visibility Wind Speed Wind Dir Waves Ship Positions

P&o Hercules

Last reported at 2017-Dec-03 16:02 UTC. Time now 2017-Dec-15 16:05 UTC.
Position N 34°39' E 033°16'.
Warning: this ship's position is 12 days out of date.

Length 32 m; draft 5 m.

Type: Tug. MMSI: 212881000.

Date/timePositionNaut miles runAvg speedWind from/ knotsBaromVisibWave heightAir tempDewpointWater temp
2017-Dec-03 16:02N 34°39' E 033°16'9 8.7
2017-Dec-03 15:02N 34°39' E 033°05'0 9.0
2017-Dec-03 15:00N 34°39' E 033°05'3 5.9
2017-Dec-03 14:30N 34°39' E 033°01'0 0.6
2017-Dec-03 14:01N 34°39' E 033°01'0 0.4
2017-Dec-03 13:30N 34°39' E 033°01'0 0.0
2017-Dec-03 13:00N 34°39' E 033°01'0 0.0
2017-Dec-03 12:30N 34°39' E 033°01'0 0.0
2017-Dec-03 12:00N 34°39' E 033°01'0 0.0
2017-Dec-03 11:30N 34°39' E 033°01'0 0.0
2017-Dec-03 11:01N 34°39' E 033°01'0 0.0
2017-Dec-03 10:30N 34°39' E 033°01'0 0.0
2017-Dec-03 10:00N 34°39' E 033°01'0 0.0
2017-Dec-03 09:30N 34°39' E 033°01'0 0.0
2017-Dec-03 09:00N 34°39' E 033°01'0 0.0
2017-Dec-03 08:30N 34°39' E 033°01'0 0.0
2017-Dec-03 08:01N 34°39' E 033°01'0 0.0
2017-Dec-03 07:31N 34°39' E 033°01'0 0.0
2017-Dec-03 07:01N 34°39' E 033°01'0 0.0
2017-Dec-03 06:30N 34°39' E 033°01'0 0.0
2017-Dec-03 06:01N 34°39' E 033°01'0 0.0
2017-Dec-03 05:30N 34°39' E 033°01'0 0.0
2017-Dec-03 05:01N 34°39' E 033°01'0 0.0
2017-Dec-03 04:31N 34°39' E 033°01'0 0.0
2017-Dec-03 04:00N 34°39' E 033°01'0 0.0
2017-Dec-03 03:30N 34°39' E 033°01'0 0.0
2017-Dec-03 03:00N 34°39' E 033°01'0 0.0
2017-Dec-03 02:30N 34°39' E 033°01'0 0.0
2017-Dec-03 02:00N 34°39' E 033°01'0 0.0
2017-Dec-03 01:30N 34°39' E 033°01'0 0.0
2017-Dec-03 01:00N 34°39' E 033°01'0 0.0
2017-Dec-03 00:30N 34°39' E 033°01'0 0.0
2017-Dec-03 00:00N 34°39' E 033°01'0 0.0
2017-Dec-02 23:30N 34°39' E 033°01'0 0.0
2017-Dec-02 23:00N 34°39' E 033°01'0 0.0
2017-Dec-02 22:31N 34°39' E 033°01'0 0.0
2017-Dec-02 22:00N 34°39' E 033°01'0 0.0
2017-Dec-02 21:31N 34°39' E 033°01'0 0.0
2017-Dec-02 21:01N 34°39' E 033°01'0 0.0
2017-Dec-02 20:30N 34°39' E 033°01'0 0.0
2017-Dec-02 20:00N 34°39' E 033°01'0 0.0
2017-Dec-02 19:30N 34°39' E 033°01'0 0.0
2017-Dec-02 19:00N 34°39' E 033°01'0 0.0
2017-Dec-02 18:31N 34°39' E 033°01'0 0.0
2017-Dec-02 18:01N 34°39' E 033°01'0 0.0
2017-Dec-02 17:30N 34°39' E 033°01'0 0.0
2017-Dec-02 17:01N 34°39' E 033°01'0 0.0
2017-Dec-02 16:30N 34°39' E 033°01'0 0.0
2017-Dec-02 16:01N 34°39' E 033°01'0 0.0
2017-Dec-02 15:30N 34°39' E 033°01'0 0.0
2017-Dec-02 15:00N 34°39' E 033°01'0 0.0
2017-Dec-02 14:30N 34°39' E 033°01'0 0.0
2017-Dec-02 14:01N 34°39' E 033°01'0 0.0
2017-Dec-02 13:30N 34°39' E 033°01'0 0.0
2017-Dec-02 13:00N 34°39' E 033°01'0 0.0
2017-Dec-02 12:30N 34°39' E 033°01'0 0.0
2017-Dec-02 12:00N 34°39' E 033°01'0 0.0
2017-Dec-02 11:30N 34°39' E 033°01'0 0.0
2017-Dec-02 11:01N 34°39' E 033°01'0 0.0
2017-Dec-02 10:30N 34°39' E 033°01'0 0.0
2017-Dec-02 10:01N 34°39' E 033°01'0 0.0
2017-Dec-02 09:31N 34°39' E 033°01'0 0.0
2017-Dec-02 09:01N 34°39' E 033°01'0 0.0
2017-Dec-02 08:30N 34°39' E 033°01'0 0.0
2017-Dec-02 08:00N 34°39' E 033°01'0 0.0
2017-Dec-02 07:31N 34°39' E 033°01'0 0.0
2017-Dec-02 07:01N 34°39' E 033°01'0 0.0
2017-Dec-02 06:30N 34°39' E 033°01'0 0.0
2017-Dec-02 06:00N 34°39' E 033°01'0 0.0
2017-Dec-02 05:31N 34°39' E 033°01'0 0.0
2017-Dec-02 05:00N 34°39' E 033°01'0 0.0
2017-Dec-02 04:30N 34°39' E 033°01'1 1.0
2017-Dec-02 04:01N 34°39' E 033°01'0 0.5
2017-Dec-02 03:31N 34°39' E 033°01'0 0.3
2017-Dec-02 03:01N 34°39' E 033°01'0 0.5
2017-Dec-02 02:30N 34°39' E 033°01'0 0.0
2017-Dec-02 02:01N 34°39' E 033°01'0 0.0
2017-Dec-02 01:30N 34°39' E 033°01'0 0.0
2017-Dec-02 01:00N 34°39' E 033°01'0 0.0
2017-Dec-02 00:31N 34°39' E 033°01'0 0.0
2017-Dec-02 00:01N 34°39' E 033°01'0 0.0
2017-Dec-01 23:30N 34°39' E 033°01'0 0.0
2017-Dec-01 23:00N 34°39' E 033°01'0 0.0
2017-Dec-01 22:30N 34°39' E 033°01'0 0.0
2017-Dec-01 22:00N 34°39' E 033°01'0 0.0
2017-Dec-01 21:31N 34°39' E 033°01'0 0.0
2017-Dec-01 21:00N 34°39' E 033°01'0 0.0
2017-Dec-01 20:30N 34°39' E 033°01'2 4.1
2017-Dec-01 20:00N 34°39' E 033°04'  
2017-Nov-26 23:54N 34°39' E 033°06'4 8.6
2017-Nov-26 23:30N 34°39' E 033°02'1 2.3
2017-Nov-26 23:00N 34°39' E 033°01'0 0.4
2017-Nov-26 22:31N 34°39' E 033°01'1 1.1
2017-Nov-26 22:00N 34°39' E 033°01'1 2.2
2017-Nov-26 21:30N 34°39' E 033°03'1 2.5
2017-Nov-26 21:00N 34°39' E 033°01'0 0.1
2017-Nov-26 20:30N 34°39' E 033°01'0 0.0
2017-Nov-26 20:00N 34°39' E 033°01'0 0.1
2017-Nov-26 19:30N 34°39' E 033°01'0 0.4
2017-Nov-26 19:00N 34°39' E 033°02'0 0.5
2017-Nov-26 18:30N 34°39' E 033°01'0 0.0
2017-Nov-26 18:00N 34°39' E 033°01'0 0.0
2017-Nov-26 17:30N 34°39' E 033°01'0 0.0
2017-Nov-26 17:00N 34°39' E 033°01'0 0.0
2017-Nov-26 16:30N 34°39' E 033°01'0 0.0
2017-Nov-26 16:00N 34°39' E 033°01'0 0.0
2017-Nov-26 15:30N 34°39' E 033°01'0 0.0
2017-Nov-26 15:00N 34°39' E 033°01'0 0.0
2017-Nov-26 14:30N 34°39' E 033°01'0 0.0
2017-Nov-26 14:00N 34°39' E 033°01'0 0.0
2017-Nov-26 13:30N 34°39' E 033°01'0 0.0
2017-Nov-26 13:00N 34°39' E 033°01'0 0.0
2017-Nov-26 12:30N 34°39' E 033°01'0 0.0
2017-Nov-26 12:00N 34°39' E 033°01'0 0.0
2017-Nov-26 11:30N 34°39' E 033°01'0 0.0
2017-Nov-26 11:00N 34°39' E 033°01'0 0.0
2017-Nov-26 10:30N 34°39' E 033°01'0 0.0
2017-Nov-26 10:00N 34°39' E 033°01'  
Track history (hours):
 
Tides and Currents Weather Stations Pressure Air Temp Water Temp Dewpoint Dewpoint Depression Visibility Wind Speed Wind Dir Waves Ship Positions

P&o Hercules

Last reported at 2017-Dec-03 16:02 UTC. Time now 2017-Dec-15 16:05 UTC.
Position N 34°39' E 033°16'.
Warning: this ship's position is 12 days out of date.

Length 32 m; draft 5 m.

Type: Tug. MMSI: 212881000.

Date/timePositionNaut miles runAvg speedWind from/ knotsBaromVisibWave heightAir tempDewpointWater temp
2017-Dec-03 16:02N 34°39' E 033°16'9 8.7
2017-Dec-03 15:02N 34°39' E 033°05'0 9.0
2017-Dec-03 15:00N 34°39' E 033°05'3 5.9
2017-Dec-03 14:30N 34°39' E 033°01'0 0.6
2017-Dec-03 14:01N 34°39' E 033°01'0 0.4
2017-Dec-03 13:30N 34°39' E 033°01'0 0.0
2017-Dec-03 13:00N 34°39' E 033°01'0 0.0
2017-Dec-03 12:30N 34°39' E 033°01'0 0.0
2017-Dec-03 12:00N 34°39' E 033°01'0 0.0
2017-Dec-03 11:30N 34°39' E 033°01'0 0.0
2017-Dec-03 11:01N 34°39' E 033°01'0 0.0
2017-Dec-03 10:30N 34°39' E 033°01'0 0.0
2017-Dec-03 10:00N 34°39' E 033°01'0 0.0
2017-Dec-03 09:30N 34°39' E 033°01'0 0.0
2017-Dec-03 09:00N 34°39' E 033°01'0 0.0
2017-Dec-03 08:30N 34°39' E 033°01'0 0.0
2017-Dec-03 08:01N 34°39' E 033°01'0 0.0
2017-Dec-03 07:31N 34°39' E 033°01'0 0.0
2017-Dec-03 07:01N 34°39' E 033°01'0 0.0
2017-Dec-03 06:30N 34°39' E 033°01'0 0.0
2017-Dec-03 06:01N 34°39' E 033°01'0 0.0
2017-Dec-03 05:30N 34°39' E 033°01'0 0.0
2017-Dec-03 05:01N 34°39' E 033°01'0 0.0
2017-Dec-03 04:31N 34°39' E 033°01'0 0.0
2017-Dec-03 04:00N 34°39' E 033°01'0 0.0
2017-Dec-03 03:30N 34°39' E 033°01'0 0.0
2017-Dec-03 03:00N 34°39' E 033°01'0 0.0
2017-Dec-03 02:30N 34°39' E 033°01'0 0.0
2017-Dec-03 02:00N 34°39' E 033°01'0 0.0
2017-Dec-03 01:30N 34°39' E 033°01'0 0.0
2017-Dec-03 01:00N 34°39' E 033°01'0 0.0
2017-Dec-03 00:30N 34°39' E 033°01'0 0.0
2017-Dec-03 00:00N 34°39' E 033°01'0 0.0
2017-Dec-02 23:30N 34°39' E 033°01'0 0.0
2017-Dec-02 23:00N 34°39' E 033°01'0 0.0
2017-Dec-02 22:31N 34°39' E 033°01'0 0.0
2017-Dec-02 22:00N 34°39' E 033°01'0 0.0
2017-Dec-02 21:31N 34°39' E 033°01'0 0.0
2017-Dec-02 21:01N 34°39' E 033°01'0 0.0
2017-Dec-02 20:30N 34°39' E 033°01'0 0.0
2017-Dec-02 20:00N 34°39' E 033°01'0 0.0
2017-Dec-02 19:30N 34°39' E 033°01'0 0.0
2017-Dec-02 19:00N 34°39' E 033°01'0 0.0
2017-Dec-02 18:31N 34°39' E 033°01'0 0.0
2017-Dec-02 18:01N 34°39' E 033°01'0 0.0
2017-Dec-02 17:30N 34°39' E 033°01'0 0.0
2017-Dec-02 17:01N 34°39' E 033°01'0 0.0
2017-Dec-02 16:30N 34°39' E 033°01'0 0.0
2017-Dec-02 16:01N 34°39' E 033°01'0 0.0
2017-Dec-02 15:30N 34°39' E 033°01'0 0.0
2017-Dec-02 15:00N 34°39' E 033°01'0 0.0
2017-Dec-02 14:30N 34°39' E 033°01'0 0.0
2017-Dec-02 14:01N 34°39' E 033°01'0 0.0
2017-Dec-02 13:30N 34°39' E 033°01'0 0.0
2017-Dec-02 13:00N 34°39' E 033°01'0 0.0
2017-Dec-02 12:30N 34°39' E 033°01'0 0.0
2017-Dec-02 12:00N 34°39' E 033°01'0 0.0
2017-Dec-02 11:30N 34°39' E 033°01'0 0.0
2017-Dec-02 11:01N 34°39' E 033°01'0 0.0
2017-Dec-02 10:30N 34°39' E 033°01'0 0.0
2017-Dec-02 10:01N 34°39' E 033°01'0 0.0
2017-Dec-02 09:31N 34°39' E 033°01'0 0.0
2017-Dec-02 09:01N 34°39' E 033°01'0 0.0
2017-Dec-02 08:30N 34°39' E 033°01'0 0.0
2017-Dec-02 08:00N 34°39' E 033°01'0 0.0
2017-Dec-02 07:31N 34°39' E 033°01'0 0.0
2017-Dec-02 07:01N 34°39' E 033°01'0 0.0
2017-Dec-02 06:30N 34°39' E 033°01'0 0.0
2017-Dec-02 06:00N 34°39' E 033°01'0 0.0
2017-Dec-02 05:31N 34°39' E 033°01'0 0.0
2017-Dec-02 05:00N 34°39' E 033°01'0 0.0
2017-Dec-02 04:30N 34°39' E 033°01'1 1.0
2017-Dec-02 04:01N 34°39' E 033°01'0 0.5
2017-Dec-02 03:31N 34°39' E 033°01'0 0.3
2017-Dec-02 03:01N 34°39' E 033°01'0 0.5
2017-Dec-02 02:30N 34°39' E 033°01'0 0.0
2017-Dec-02 02:01N 34°39' E 033°01'0 0.0
2017-Dec-02 01:30N 34°39' E 033°01'0 0.0
2017-Dec-02 01:00N 34°39' E 033°01'0 0.0
2017-Dec-02 00:31N 34°39' E 033°01'0 0.0
2017-Dec-02 00:01N 34°39' E 033°01'0 0.0
2017-Dec-01 23:30N 34°39' E 033°01'0 0.0
2017-Dec-01 23:00N 34°39' E 033°01'0 0.0
2017-Dec-01 22:30N 34°39' E 033°01'0 0.0
2017-Dec-01 22:00N 34°39' E 033°01'0 0.0
2017-Dec-01 21:31N 34°39' E 033°01'0 0.0
2017-Dec-01 21:00N 34°39' E 033°01'0 0.0
2017-Dec-01 20:30N 34°39' E 033°01'2 4.1
2017-Dec-01 20:00N 34°39' E 033°04'  
2017-Nov-26 23:54N 34°39' E 033°06'4 8.6
2017-Nov-26 23:30N 34°39' E 033°02'1 2.3
2017-Nov-26 23:00N 34°39' E 033°01'0 0.4
2017-Nov-26 22:31N 34°39' E 033°01'1 1.1
2017-Nov-26 22:00N 34°39' E 033°01'1 2.2
2017-Nov-26 21:30N 34°39' E 033°03'1 2.5
2017-Nov-26 21:00N 34°39' E 033°01'0 0.1
2017-Nov-26 20:30N 34°39' E 033°01'0 0.0
2017-Nov-26 20:00N 34°39' E 033°01'0 0.1
2017-Nov-26 19:30N 34°39' E 033°01'0 0.4
2017-Nov-26 19:00N 34°39' E 033°02'0 0.5
2017-Nov-26 18:30N 34°39' E 033°01'0 0.0
2017-Nov-26 18:00N 34°39' E 033°01'0 0.0
2017-Nov-26 17:30N 34°39' E 033°01'0 0.0
2017-Nov-26 17:00N 34°39' E 033°01'0 0.0
2017-Nov-26 16:30N 34°39' E 033°01'0 0.0
2017-Nov-26 16:00N 34°39' E 033°01'0 0.0
2017-Nov-26 15:30N 34°39' E 033°01'0 0.0
2017-Nov-26 15:00N 34°39' E 033°01'0 0.0
2017-Nov-26 14:30N 34°39' E 033°01'0 0.0
2017-Nov-26 14:00N 34°39' E 033°01'0 0.0
2017-Nov-26 13:30N 34°39' E 033°01'0 0.0
2017-Nov-26 13:00N 34°39' E 033°01'0 0.0
2017-Nov-26 12:30N 34°39' E 033°01'0 0.0
2017-Nov-26 12:00N 34°39' E 033°01'0 0.0
2017-Nov-26 11:30N 34°39' E 033°01'0 0.0
2017-Nov-26 11:00N 34°39' E 033°01'0 0.0
2017-Nov-26 10:30N 34°39' E 033°01'0 0.0
2017-Nov-26 10:00N 34°39' E 033°01'  

Dump ship's entire track history